Time;durP1;ratioP1;P1;durP2;ratioP2;P2;SDS_P1;SDS_P2;PMS_P1;PMS_P2;Temp;Humidity;BMP_temperature;BMP_pressure;BME280_temperature;BME280_humidity;BME280_pressure;Samples;Min_cycle;Max_cycle;Signal;HPM_P1;HPM_P2
2022/05/21 00:00:17;;;;;;;2.78;1.40;;;19.10;1.40;;;20.16;100.00;95702.39;646498;214;42219;-75
2022/05/21 00:02:58;;;;;;;1.27;0.90;;;18.90;1.40;;;20.07;100.00;95704.73;646822;216;42737;-75
2022/05/21 00:05:40;;;;;;;1.80;1.70;;;18.70;1.40;;;19.99;100.00;95720.55;646648;216;31597;-76
2022/05/21 00:08:22;;;;;;;3.62;1.48;;;18.60;1.40;;;19.88;100.00;95730.52;645270;212;31923;-76
2022/05/21 00:11:04;;;;;;;2.60;1.70;;;18.50;1.40;;;19.77;100.00;95723.70;646230;216;31934;-76
2022/05/21 00:13:47;;;;;;;3.45;1.58;;;18.30;1.40;;;19.62;100.00;95723.05;647683;216;31612;-76
2022/05/21 00:16:27;;;;;;;1.62;1.27;;;18.20;1.40;;;19.58;100.00;95718.66;646500;216;31531;-76
2022/05/21 00:19:09;;;;;;;1.20;0.90;;;18.20;1.40;;;19.47;100.00;95718.72;645636;212;32102;-75
2022/05/21 00:21:50;;;;;;;2.20;1.67;;;18.10;1.40;;;19.38;100.00;95721.42;646497;216;31595;-75
2022/05/21 00:24:32;;;;;;;2.40;2.10;;;18.10;1.40;;;19.28;100.00;95739.27;647055;216;31645;-75
2022/05/21 00:27:14;;;;;;;1.60;0.90;;;18.10;1.40;;;19.02;100.00;95741.27;647065;216;31506;-75
2022/05/21 00:29:56;;;;;;;1.50;1.23;;;17.80;1.40;;;18.94;100.00;95754.36;646291;216;31504;-74
2022/05/21 00:32:38;;;;;;;1.02;0.80;;;17.80;1.40;;;18.82;100.00;95749.81;646799;216;31565;-75
2022/05/21 00:35:54;;;;;;;1.60;1.10;;;17.70;1.40;;;18.69;100.00;95760.72;647357;216;31542;-74
2022/05/21 00:38:36;;;;;;;1.23;1.08;;;17.60;1.40;;;18.74;100.00;95773.84;640974;217;31553;-75
2022/05/21 00:41:21;;;;;;;2.75;0.90;;;17.70;1.40;;;18.64;100.00;95777.50;645789;212;31573;-75
2022/05/21 00:44:03;;;;;;;0.98;0.88;;;17.60;1.40;;;18.75;100.00;95767.96;647269;216;31546;-74
2022/05/21 00:49:23;;;;;;;1.40;1.00;;;17.70;1.40;;;18.79;100.00;95766.53;645814;216;31529;-74
2022/05/21 00:52:11;;;;;;;1.52;1.10;;;17.60;1.40;;;18.63;100.00;95769.42;646161;212;31503;-74
2022/05/21 00:54:56;;;;;;;1.75;0.95;;;17.50;1.40;;;18.61;100.00;95762.13;618709;222;31860;-75
2022/05/21 00:57:38;;;;;;;2.97;1.40;;;17.50;1.40;;;18.50;100.00;95762.62;647519;216;31514;-75
2022/05/21 01:00:19;;;;;;;1.52;1.40;;;17.50;1.40;;;18.47;100.00;95761.28;646584;212;32182;-75
2022/05/21 01:03:01;;;;;;;1.15;0.95;;;17.50;1.40;;;18.45;100.00;95777.45;619212;226;31830;-75
2022/05/21 01:05:43;;;;;;;1.17;1.07;;;17.40;1.40;;;18.43;100.00;95779.92;646079;216;31514;-75
2022/05/21 01:08:25;;;;;;;1.90;1.30;;;17.30;1.40;;;18.40;100.00;95780.20;643838;212;32481;-75
2022/05/21 01:11:08;;;;;;;3.75;1.00;;;17.30;1.40;;;18.29;100.00;95775.09;619391;222;32001;-75
2022/05/21 01:13:50;;;;;;;1.37;1.05;;;17.30;1.40;;;18.28;100.00;95779.41;619808;222;32512;-75
2022/05/21 01:16:31;;;;;;;1.45;1.08;;;17.30;1.40;;;18.28;100.00;95783.78;646838;214;42690;-75
2022/05/21 01:19:13;;;;;;;1.75;1.20;;;17.30;1.40;;;18.16;100.00;95792.34;645680;216;31510;-75
2022/05/21 01:21:54;;;;;;;1.20;1.05;;;17.10;1.40;;;17.98;100.00;95817.19;646776;216;31679;-75
2022/05/21 01:24:36;;;;;;;2.00;1.10;;;17.00;1.40;;;17.70;100.00;95808.47;646409;212;31572;-75
2022/05/21 01:27:21;;;;;;;1.87;0.98;;;16.80;1.40;;;17.48;100.00;95797.94;619094;226;31829;-75
2022/05/21 01:30:03;;;;;;;1.20;1.00;;;16.60;1.40;;;17.28;100.00;95818.92;646953;216;31494;-74
2022/05/21 01:32:48;;;;;;;1.70;1.20;;;16.30;1.40;;;17.02;100.00;95818.24;646488;212;31488;-75
2022/05/21 01:35:51;;;;;;;1.23;0.98;;;15.90;1.40;;;16.78;100.00;95816.34;618348;226;42685;-75
2022/05/21 01:38:33;;;;;;;2.00;0.80;;;15.60;1.40;;;16.61;100.00;95802.94;647139;216;31610;-76
2022/05/21 01:41:15;;;;;;;1.20;1.10;;;15.60;1.40;;;16.70;100.00;95791.11;618658;222;32136;-76
2022/05/21 01:46:46;;;;;;;3.80;1.58;;;15.60;1.40;;;16.47;100.00;95784.57;647309;212;31511;-75
2022/05/21 01:49:28;;;;;;;0.90;0.80;;;15.60;1.40;;;16.44;100.00;95773.97;646174;216;31548;-74
2022/05/21 01:52:13;;;;;;;1.40;0.88;;;15.50;1.40;;;16.39;100.00;95765.78;645183;216;31531;-74
2022/05/21 01:54:55;;;;;;;1.27;0.70;;;15.50;1.40;;;16.40;100.00;95775.81;647030;216;31933;-74
2022/05/21 01:57:36;;;;;;;1.60;1.02;;;15.40;1.40;;;16.46;100.00;95777.70;647071;216;31507;-74
2022/05/21 02:00:19;;;;;;;1.23;0.77;;;15.40;1.40;;;16.48;100.00;95786.06;648832;216;31489;-74
2022/05/21 02:03:00;;;;;;;3.12;0.90;;;15.40;1.40;;;16.47;100.00;95780.80;645994;216;31744;-74
2022/05/21 02:05:44;;;;;;;1.27;0.77;;;15.50;1.40;;;16.49;100.00;95774.46;654780;216;31586;-74
2022/05/21 02:08:29;;;;;;;1.15;0.80;;;15.50;1.40;;;16.57;100.00;95781.41;613118;226;32206;-74
2022/05/21 02:11:12;;;;;;;1.12;0.80;;;15.50;1.40;;;16.61;100.00;95770.80;620065;225;31823;-74
2022/05/21 02:13:52;;;;;;;1.00;0.73;;;15.50;1.40;;;16.66;100.00;95778.74;654546;212;32108;-74
2022/05/21 02:16:37;;;;;;;1.08;0.77;;;15.60;1.40;;;16.66;100.00;95778.66;647144;212;31528;-75
2022/05/21 02:19:19;;;;;;;1.42;1.33;;;15.60;1.40;;;16.71;100.00;95771.90;652103;212;31504;-74
2022/05/21 02:22:00;;;;;;;0.90;0.80;;;15.60;1.40;;;16.72;100.00;95775.97;653080;216;31486;-74
2022/05/21 02:24:45;;;;;;;1.08;0.85;;;15.70;1.40;;;16.71;100.00;95783.89;648731;216;32110;-75
2022/05/21 02:27:27;;;;;;;1.80;1.30;;;15.70;1.40;;;16.71;100.00;95779.53;646202;216;31861;-74
2022/05/21 02:30:13;;;;;;;2.47;0.73;;;15.70;1.40;;;16.70;100.00;95775.62;652285;216;31536;-74
2022/05/21 02:32:54;;;;;;;1.90;1.30;;;15.70;1.40;;;16.60;100.00;95776.41;653674;212;31649;-75
2022/05/21 02:35:51;;;;;;;1.48;1.17;;;15.60;1.40;;;16.54;100.00;95776.58;647157;216;32142;-74
2022/05/21 02:41:23;;;;;;;1.60;1.50;;;15.60;1.40;;;16.44;100.00;95789.53;653868;216;31641;-74
2022/05/21 02:44:05;;;;;;;1.50;1.30;;;15.50;1.40;;;16.39;100.00;95780.56;650245;212;31624;-75
2022/05/21 02:46:47;;;;;;;1.37;1.00;;;15.50;1.40;;;16.34;100.00;95771.96;647874;216;31549;-75
2022/05/21 02:49:28;;;;;;;1.90;1.17;;;15.50;1.40;;;16.35;100.00;95774.72;647789;216;31530;-74
2022/05/21 02:52:10;;;;;;;0.90;0.90;;;15.40;1.40;;;16.27;100.00;95784.50;652002;216;31525;-74
2022/05/21 02:54:52;;;;;;;1.30;1.02;;;15.50;1.40;;;16.31;100.00;95779.59;646437;212;31561;-74
2022/05/21 02:57:34;;;;;;;1.73;0.93;;;15.40;1.40;;;16.27;100.00;95786.14;645611;212;31474;-74
2022/05/21 03:00:20;;;;;;;1.90;0.90;;;15.40;1.40;;;16.24;100.00;95775.78;627335;222;32291;-75
2022/05/21 03:03:02;;;;;;;1.58;0.98;;;15.40;1.40;;;16.22;100.00;95782.24;652761;216;31721;-75
2022/05/21 03:05:43;;;;;;;1.40;1.30;;;15.50;1.40;;;16.22;100.00;95785.57;650673;216;31484;-74
2022/05/21 03:11:12;;;;;;;1.58;0.88;;;15.40;1.40;;;16.16;100.00;95783.88;656052;216;31531;-74
2022/05/21 03:13:54;;;;;;;1.33;1.05;;;15.40;1.40;;;16.14;100.00;95789.03;644798;212;31635;-74
2022/05/21 03:16:36;;;;;;;1.10;0.90;;;15.40;1.40;;;16.11;100.00;95780.16;642979;219;31639;-74
2022/05/21 03:19:17;;;;;;;2.42;1.42;;;15.30;1.40;;;16.09;100.00;95790.47;623825;226;31834;-74
2022/05/21 03:21:59;;;;;;;1.00;0.80;;;15.30;1.40;;;16.08;100.00;95787.36;652053;212;31686;-74
2022/05/21 03:24:41;;;;;;;0.80;0.70;;;15.30;1.40;;;16.11;100.00;95784.13;624357;225;31877;-74
2022/05/21 03:27:24;;;;;;;1.20;1.10;;;15.30;1.40;;;16.08;100.00;95785.36;617706;226;31993;-75
2022/05/21 03:30:09;;;;;;;2.60;1.08;;;15.30;1.40;;;16.09;100.00;95796.98;649392;216;32059;-74
2022/05/21 03:32:51;;;;;;;1.73;1.17;;;15.30;1.40;;;16.15;100.00;95797.41;648411;216;31551;-75
2022/05/21 03:35:51;;;;;;;2.78;1.17;;;15.30;1.40;;;16.20;100.00;95792.77;654709;216;31735;-75
2022/05/21 03:38:36;;;;;;;1.92;1.83;;;15.20;1.40;;;16.19;100.00;95793.45;646125;212;31528;-74
2022/05/21 03:41:17;;;;;;;0.95;0.65;;;15.10;1.40;;;16.14;100.00;95791.44;651281;216;31611;-74
2022/05/21 03:44:00;;;;;;;1.55;1.37;;;15.10;1.40;;;16.07;100.00;95800.80;651286;213;31549;-75
2022/05/21 03:46:41;;;;;;;1.50;0.93;;;15.00;1.40;;;16.04;100.00;95808.35;648335;212;32109;-74
2022/05/21 03:49:23;;;;;;;2.50;1.50;;;15.00;1.40;;;15.83;100.00;95812.08;650816;216;31496;-74
2022/05/21 03:52:06;;;;;;;1.17;1.08;;;15.00;1.40;;;15.79;100.00;95818.50;651743;212;32148;-74
2022/05/21 03:54:46;;;;;;;2.33;1.37;;;15.00;1.40;;;15.78;100.00;95828.12;644761;216;31543;-74
2022/05/21 03:57:28;;;;;;;1.48;1.00;;;14.90;1.40;;;15.73;100.00;95823.52;650996;212;31629;-74
2022/05/21 04:00:13;;;;;;;1.90;0.90;;;14.80;1.40;;;15.78;100.00;95829.03;650164;216;31739;-74
2022/05/21 04:02:55;;;;;;;1.35;0.77;;;14.90;1.40;;;15.79;100.00;95833.43;649715;216;31686;-74
2022/05/21 04:05:36;;;;;;;1.85;1.15;;;14.90;1.40;;;15.75;100.00;95828.59;656119;212;31497;-74
2022/05/21 04:08:18;;;;;;;1.75;0.73;;;14.90;1.40;;;15.74;100.00;95834.98;650577;216;31674;-74
2022/05/21 04:11:00;;;;;;;0.73;0.73;;;14.80;1.40;;;15.75;100.00;95842.83;616383;226;31978;-75
2022/05/21 04:13:41;;;;;;;1.30;1.20;;;14.80;1.40;;;15.74;100.00;95851.01;646452;212;31506;-74
2022/05/21 04:16:23;;;;;;;1.40;1.30;;;14.90;1.40;;;15.79;100.00;95855.37;649281;216;31544;-74
2022/05/21 04:19:05;;;;;;;1.20;0.80;;;14.90;1.40;;;15.82;100.00;95854.14;652029;212;31520;-74
2022/05/21 04:21:46;;;;;;;4.35;1.30;;;14.90;1.40;;;15.86;100.00;95858.89;649443;216;31512;-73
2022/05/21 04:24:28;;;;;;;1.73;1.37;;;14.90;1.40;;;15.90;100.00;95856.83;644840;216;31499;-74
2022/05/21 04:27:10;;;;;;;1.08;0.93;;;14.90;1.40;;;15.91;100.00;95855.13;645342;216;31564;-74
2022/05/21 04:29:51;;;;;;;2.30;0.80;;;15.00;1.40;;;15.96;100.00;95859.64;627354;222;31801;-75
2022/05/21 04:32:33;;;;;;;3.00;1.20;;;15.00;1.40;;;15.90;100.00;95859.41;650374;216;31486;-74
2022/05/21 04:38:41;;;;;;;1.30;0.90;;;15.00;1.40;;;16.00;100.00;95865.20;645273;216;32082;-74
2022/05/21 04:41:22;;;;;;;0.77;0.68;;;15.00;1.40;;;16.08;100.00;95866.73;625322;222;32325;-74
2022/05/21 04:44:07;;;;;;;3.10;0.90;;;15.10;1.40;;;16.11;100.00;95867.51;643515;216;32010;-74
2022/05/21 04:46:46;;;;;;;1.35;1.25;;;15.10;1.40;;;16.21;100.00;95872.14;648309;212;32485;-74
2022/05/21 04:49:28;;;;;;;0.98;0.98;;;15.20;1.40;;;16.28;100.00;95877.47;648947;216;32077;-74
2022/05/21 04:52:09;;;;;;;1.10;0.60;;;15.20;1.40;;;16.38;100.00;95879.63;618387;222;32220;-74
2022/05/21 04:54:51;;;;;;;1.02;0.62;;;15.30;1.40;;;16.47;100.00;95891.32;652789;216;31525;-75
2022/05/21 04:57:33;;;;;;;0.90;0.70;;;15.30;1.40;;;16.52;100.00;95892.30;645748;216;31662;-74
2022/05/21 05:02:21;;;;;;;2.00;1.50;;;15.60;1.40;;;16.92;100.00;95902.89;644829;216;31532;-74
2022/05/21 05:05:03;;;;;;;2.65;1.17;;;15.90;1.40;;;17.08;100.00;95901.63;645715;212;31540;-74
2022/05/21 05:07:45;;;;;;;1.40;1.30;;;16.00;1.40;;;17.20;100.00;95900.50;649746;216;31577;-73
2022/05/21 05:10:27;;;;;;;1.27;1.00;;;16.00;1.40;;;17.21;100.00;95904.34;651404;216;31494;-76
2022/05/21 05:13:08;;;;;;;1.40;0.77;;;16.00;1.40;;;17.10;100.00;95912.63;644553;216;31484;-74
2022/05/21 05:15:50;;;;;;;2.05;0.80;;;16.00;1.40;;;17.12;100.00;95915.44;647571;216;31512;-75
2022/05/21 05:18:32;;;;;;;1.50;1.30;;;16.10;1.40;;;17.44;100.00;95916.83;646835;216;31499;-75
2022/05/21 05:21:14;;;;;;;0.60;0.40;;;16.40;1.40;;;17.62;100.00;95915.65;651019;216;31765;-75
2022/05/21 05:23:55;;;;;;;0.50;0.50;;;16.40;1.40;;;17.57;100.00;95923.53;649163;212;31476;-75
2022/05/21 05:26:37;;;;;;;1.52;0.93;;;16.40;1.40;;;17.82;100.00;95923.05;650276;216;31564;-74
2022/05/21 05:29:19;;;;;;;2.33;0.60;;;16.50;1.40;;;17.87;100.00;95921.20;619038;226;32099;-75
2022/05/21 05:32:01;;;;;;;1.15;1.00;;;16.50;1.40;;;17.80;100.00;95924.80;648559;216;31469;-74
2022/05/21 05:35:52;;;;;;;1.60;0.85;;;16.30;1.40;;;17.24;100.00;95930.36;653381;212;31628;-74
2022/05/21 05:38:36;;;;;;;1.60;1.00;;;16.00;1.40;;;17.02;100.00;95931.66;648871;216;31564;-74
2022/05/21 05:41:17;;;;;;;2.03;1.02;;;15.80;1.40;;;16.67;100.00;95931.81;651460;216;31646;-75
2022/05/21 05:43:59;;;;;;;1.92;0.88;;;15.60;1.40;;;16.56;100.00;95933.17;653690;216;31749;-74
2022/05/21 05:46:41;;;;;;;2.00;1.25;;;15.50;1.40;;;16.59;100.00;95931.74;648044;216;31489;-75
2022/05/21 05:49:22;;;;;;;1.30;0.70;;;15.50;1.40;;;16.58;100.00;95937.22;618627;222;31837;-74
2022/05/21 05:52:05;;;;;;;1.00;0.70;;;15.60;1.40;;;16.72;100.00;95936.91;648007;216;31470;-74
2022/05/21 05:54:46;;;;;;;3.10;1.10;;;15.60;1.40;;;16.64;100.00;95942.12;651385;216;31493;-74
2022/05/21 05:57:31;;;;;;;0.90;0.50;;;15.60;1.40;;;16.72;100.00;95943.93;644653;216;31507;-74
2022/05/21 06:00:13;;;;;;;1.27;0.88;;;15.70;1.40;;;16.93;100.00;95941.36;647413;216;31459;-75
2022/05/21 06:02:58;;;;;;;0.77;0.70;;;15.90;1.40;;;17.05;100.00;95937.63;652481;216;31512;-74
2022/05/21 06:05:40;;;;;;;0.85;0.80;;;16.10;1.40;;;17.12;100.00;95944.95;651479;216;32637;-75
2022/05/21 06:08:22;;;;;;;0.70;0.60;;;16.30;1.40;;;17.40;100.00;95941.38;647201;216;31741;-75
2022/05/21 06:11:03;;;;;;;0.80;0.73;;;16.30;1.40;;;17.39;100.00;95940.33;646962;215;31800;-74
2022/05/21 06:13:45;;;;;;;1.50;1.27;;;16.30;1.40;;;17.64;100.00;95940.31;644561;213;31479;-74
2022/05/21 06:16:27;;;;;;;0.80;0.60;;;16.50;1.40;;;17.75;100.00;95941.00;646645;216;31469;-74
2022/05/21 06:19:08;;;;;;;1.20;0.70;;;16.60;1.40;;;17.76;100.00;95944.75;650070;216;31666;-74
2022/05/21 06:21:50;;;;;;;0.93;0.82;;;16.60;1.40;;;17.38;100.00;95949.53;650608;212;31617;-74
2022/05/21 06:24:36;;;;;;;2.03;0.90;;;16.20;1.40;;;17.01;100.00;95953.30;650480;216;31475;-75
2022/05/21 06:27:16;;;;;;;2.10;0.70;;;15.90;1.40;;;16.72;100.00;95950.62;648113;216;31504;-76
2022/05/21 06:29:58;;;;;;;1.10;0.80;;;15.60;1.40;;;16.60;100.00;95950.70;649104;216;31543;-75
2022/05/21 06:32:40;;;;;;;0.80;0.70;;;15.50;1.40;;;16.71;100.00;95955.82;645886;216;31556;-74
2022/05/21 06:35:51;;;;;;;1.00;0.60;;;15.80;1.40;;;17.17;100.00;95952.05;647324;212;31579;-76
2022/05/21 06:38:33;;;;;;;1.90;0.80;;;16.30;1.40;;;17.36;100.00;95955.91;649351;212;31542;-74
2022/05/21 06:41:14;;;;;;;0.80;0.73;;;16.50;1.40;;;17.64;100.00;95959.56;618375;226;32456;-74
2022/05/21 06:43:56;;;;;;;0.80;0.60;;;16.70;1.40;;;17.66;100.00;95959.05;619500;226;31894;-74
2022/05/21 06:46:43;;;;;;;0.80;0.70;;;16.80;1.40;;;17.67;100.00;95968.02;647324;212;31490;-78
2022/05/21 06:49:31;;;;;;;1.00;0.60;;;16.70;1.40;;;17.60;100.00;95974.57;644206;216;31619;-73
2022/05/21 06:52:13;;;;;;;0.90;0.90;;;16.70;1.40;;;17.72;100.00;95972.89;645428;216;31456;-74
2022/05/21 06:54:54;;;;;;;1.80;0.57;;;16.70;1.40;;;17.79;100.00;95973.63;647128;216;31548;-74
2022/05/21 06:57:36;;;;;;;1.00;0.90;;;16.80;1.40;;;17.84;100.00;95974.97;644158;212;31644;-74
2022/05/21 07:00:18;;;;;;;0.50;0.50;;;16.70;1.40;;;17.99;100.00;95982.95;646988;216;31475;-73
2022/05/21 07:03:00;;;;;;;1.02;0.70;;;17.10;1.40;;;17.97;100.00;95977.91;642837;216;31464;-74
2022/05/21 07:08:29;;;;;;;1.35;0.73;;;17.30;1.40;;;18.33;100.00;95976.86;645617;216;31665;-73
2022/05/21 07:11:10;;;;;;;1.10;0.70;;;17.20;1.40;;;18.38;100.00;95971.41;647913;212;31492;-73
2022/05/21 07:13:55;;;;;;;1.10;0.70;;;17.30;1.40;;;18.80;100.00;95972.55;647556;216;32081;-75
2022/05/21 07:16:37;;;;;;;1.48;0.57;;;17.50;1.40;;;18.92;100.00;95967.99;646297;215;31544;-75
2022/05/21 07:19:24;;;;;;;0.70;0.63;;;17.60;1.40;;;18.74;100.00;95963.05;653142;216;32510;-77
2022/05/21 07:22:09;;;;;;;1.20;0.70;;;17.50;1.40;;;18.70;100.00;95967.25;653115;216;31531;-73
2022/05/21 07:24:56;;;;;;;2.10;1.00;;;17.40;1.40;;;18.56;100.00;95966.95;651416;212;31530;-78
2022/05/21 07:27:41;;;;;;;1.20;0.80;;;17.40;1.40;;;18.55;100.00;95965.29;646628;216;31604;-75
2022/05/21 07:30:48;;;;;;;1.08;0.60;;;17.60;1.40;;;18.66;100.00;95971.79;645172;216;31557;-73
2022/05/21 07:35:57;;;;;;;1.27;1.10;;;17.50;1.40;;;18.39;100.00;95962.84;641816;217;31598;-73
2022/05/21 07:38:39;;;;;;;0.90;0.70;;;17.40;1.40;;;18.60;100.00;95957.70;645532;216;32689;-73
2022/05/21 07:41:21;;;;;;;0.80;0.55;;;17.90;1.40;;;18.53;100.00;95967.04;643688;216;31561;-73
2022/05/21 07:44:02;;;;;;;0.90;0.80;;;17.70;1.40;;;18.48;100.00;95961.89;647913;216;32014;-74
2022/05/21 07:46:46;;;;;;;0.80;0.70;;;17.70;1.40;;;18.49;100.00;95959.88;621912;226;31864;-77
2022/05/21 07:49:28;;;;;;;2.50;0.87;;;17.70;1.40;;;18.68;100.00;95960.23;646829;212;31476;-76
2022/05/21 07:52:13;;;;;;;0.80;0.77;;;17.80;1.40;;;18.79;100.00;95952.88;648685;216;31519;-77
2022/05/21 07:54:54;;;;;;;1.05;0.88;;;17.90;1.40;;;19.23;100.00;95949.59;641107;217;31532;-74
2022/05/21 07:57:42;;;;;;;1.20;0.50;;;18.20;1.40;;;19.33;100.00;95950.39;647182;216;31581;-74
2022/05/21 08:00:27;;;;;;;1.02;0.80;;;18.10;1.40;;;18.99;100.00;95951.09;649522;216;42058;-75
2022/05/21 08:03:10;;;;;;;1.05;0.75;;;17.80;1.40;;;18.79;100.00;95950.17;645462;216;31465;-76
2022/05/21 08:05:53;;;;;;;1.10;0.80;;;17.80;1.40;;;18.97;100.00;95952.48;621305;222;31959;-76
2022/05/21 08:08:34;;;;;;;0.80;0.80;;;17.90;1.40;;;19.10;100.00;95945.52;617838;225;31914;-75
2022/05/21 08:11:25;;;;;;;0.90;0.80;;;18.20;1.40;;;19.22;100.00;95951.56;648551;216;31646;-74
2022/05/21 08:14:09;;;;;;;1.00;0.85;;;18.30;1.40;;;19.02;100.00;95948.06;645125;216;31516;-76
2022/05/21 08:16:52;;;;;;;4.90;1.00;;;17.80;1.40;;;18.85;100.00;95945.64;617204;222;32054;-75
2022/05/21 08:19:34;;;;;;;1.00;0.60;;;17.90;1.40;;;18.99;100.00;95943.34;622769;222;43240;-76
2022/05/21 08:27:53;;;;;;;0.60;0.50;;;18.80;1.40;;;19.71;100.00;95945.92;645701;212;31894;-76
2022/05/21 08:30:36;;;;;;;1.60;0.57;;;18.70;1.40;;;19.19;100.00;95947.34;646505;212;32060;-73
2022/05/21 08:38:28;;;;;;;0.95;0.85;;;18.40;1.40;;;19.66;100.00;95946.44;620109;225;42779;-76
2022/05/21 08:41:19;;;;;;;1.20;0.60;;;18.80;1.40;;;19.84;94.79;95946.75;646313;216;31582;-74
2022/05/21 08:44:04;;;;;;;0.70;0.60;;;19.10;1.40;;;19.94;93.37;95936.20;619992;225;42612;-76
2022/05/21 08:47:03;;;;;;;0.90;0.70;;;19.10;1.40;;;19.92;91.68;95939.95;646802;216;31480;-75
2022/05/21 08:50:09;;;;;;;1.00;0.80;;;19.20;1.40;;;20.18;96.85;95938.61;647395;212;42190;-76
2022/05/21 08:55:32;;;;;;;1.20;0.70;;;19.20;1.40;;;20.52;90.14;95926.84;647044;212;44106;-74
2022/05/21 08:58:17;;;;;;;0.82;0.60;;;19.70;1.40;;;20.69;88.14;95927.34;646801;212;31488;-74
2022/05/21 09:00:59;;;;;;;0.60;0.55;;;20.00;1.40;;;20.58;83.43;95932.06;619489;226;31974;-75
2022/05/21 09:03:40;;;;;;;0.70;0.70;;;19.70;1.40;;;20.50;79.92;95933.91;646488;212;31511;-75
2022/05/21 09:09:15;;;;;;;0.70;0.50;;;19.80;1.40;;;21.02;78.74;95922.08;637706;212;31621;-74
2022/05/21 09:11:58;;;;;;;0.77;0.60;;;20.30;1.40;;;21.24;77.89;95924.95;646920;216;42077;-75
2022/05/21 09:14:45;;;;;;;0.70;0.50;;;20.40;1.40;;;20.94;71.47;95924.13;619280;225;31827;-74
2022/05/21 09:17:25;;;;;;;0.60;0.50;;;20.10;1.40;;;21.53;70.83;95918.49;642410;214;31529;-74
2022/05/21 09:20:07;;;;;;;1.17;0.57;;;22.00;1.40;;;22.71;68.15;95910.55;645816;212;31479;-75
2022/05/21 09:22:58;;;;;;;0.98;0.50;;;23.60;1.40;;;22.98;63.95;95901.63;648096;212;31524;-74
2022/05/21 09:25:37;;;;;;;0.57;0.30;;;24.30;1.40;;;23.69;64.13;95909.80;645881;212;31710;-74
2022/05/21 09:28:22;;;;;;;0.50;0.40;;;24.60;1.40;;;24.17;57.40;95913.88;630292;222;31670;-73
2022/05/21 09:31:05;;;;;;;0.50;0.40;;;24.60;1.40;;;23.69;55.66;95907.09;619484;226;32445;-73
2022/05/21 09:35:54;;;;;;;1.40;0.40;;;25.10;1.40;;;24.18;52.15;95911.12;647186;212;31571;-74
2022/05/21 09:38:38;;;;;;;0.50;0.40;;;24.40;1.40;;;24.34;53.52;95912.52;647346;216;32009;-74
2022/05/21 09:41:23;;;;;;;1.90;0.47;;;24.90;1.40;;;24.29;53.94;95903.05;646980;212;31495;-74
2022/05/21 09:47:12;;;;;;;0.70;0.50;;;24.40;1.40;;;24.56;49.87;95904.95;642821;216;42314;-74
2022/05/21 09:50:05;;;;;;;1.00;0.40;;;25.00;1.40;;;24.87;45.44;95906.27;646259;216;31473;-74
2022/05/21 09:52:47;;;;;;;0.50;0.40;;;24.60;1.40;;;25.05;45.89;95900.31;648234;216;31464;-73
2022/05/21 09:55:30;;;;;;;0.50;0.30;;;25.00;1.40;;;25.09;45.64;95909.91;648002;216;42101;-74
2022/05/21 09:58:12;;;;;;;0.68;0.40;;;25.50;1.40;;;26.31;45.25;95904.47;648110;212;31549;-75
2022/05/21 10:00:55;;;;;;;0.73;0.50;;;26.10;1.40;;;26.47;45.25;95904.17;619352;226;31812;-75
2022/05/21 10:06:31;;;;;;;0.60;0.50;;;24.10;1.40;;;25.45;44.95;95894.23;646915;216;31644;-74
2022/05/21 10:12:22;;;;;;;0.90;0.55;;;24.70;1.40;;;25.24;45.56;95901.08;647107;216;31467;-74
2022/05/21 10:15:07;;;;;;;1.48;0.60;;;24.50;1.40;;;26.22;45.36;95894.66;645930;213;31469;-75
2022/05/21 10:17:49;;;;;;;1.20;0.70;;;25.80;1.40;;;27.07;42.97;95891.58;647361;212;31473;-75
2022/05/21 10:20:34;;;;;;;0.75;0.47;;;26.60;1.40;;;27.65;42.84;95891.47;619756;222;31911;-74
2022/05/21 10:23:35;;;;;;;1.10;0.40;;;26.90;1.40;;;25.11;41.73;95897.41;648474;212;31490;-75
2022/05/21 10:29:16;;;;;;;0.80;0.50;;;24.50;1.40;;;25.98;43.86;95888.77;647145;216;31615;-74
2022/05/21 10:32:08;;;;;;;1.00;0.50;;;25.10;1.40;;;25.73;44.08;95891.29;646998;212;31641;-75
2022/05/21 10:36:17;;;;;;;1.10;0.50;;;25.00;1.40;;;25.76;44.60;95886.98;646843;216;31527;-74
2022/05/21 10:39:16;;;;;;;1.00;0.70;;;25.00;1.40;;;26.58;41.29;95883.72;620169;222;31822;-75
2022/05/21 10:42:31;;;;;;;0.60;0.50;;;25.60;1.40;;;26.66;42.03;95885.09;646495;212;31475;-76
2022/05/21 10:45:16;;;;;;;0.60;0.40;;;24.40;1.40;;;24.63;45.39;95885.03;619407;226;32831;-75
2022/05/21 10:48:14;;;;;;;0.60;0.40;;;23.70;1.40;;;25.81;42.86;95867.70;647395;216;31522;-75
2022/05/21 10:51:01;;;;;;;0.60;0.40;;;25.60;1.40;;;27.94;40.27;95858.32;647652;212;31466;-74
2022/05/21 10:57:13;;;;;;;0.70;0.40;;;25.40;1.40;;;25.36;41.65;95870.19;642087;215;32246;-74
2022/05/21 11:00:10;;;;;;;0.70;0.50;;;24.60;1.40;;;25.93;41.82;95863.91;647001;212;31478;-74
2022/05/21 11:03:22;;;;;;;1.70;0.50;;;24.60;1.40;;;26.31;42.42;95866.43;646193;216;31486;-74
2022/05/21 11:09:15;;;;;;;0.57;0.32;;;25.70;1.40;;;27.09;42.01;95861.95;641590;212;31664;-74
2022/05/21 11:12:17;;;;;;;0.57;0.40;;;24.80;1.40;;;28.15;40.53;95856.23;647406;216;31592;-75
2022/05/21 11:15:05;;;;;;;1.25;0.40;;;26.00;1.40;;;28.79;39.00;95854.23;619888;225;31886;-76
2022/05/21 11:18:06;;;;;;;1.20;0.30;;;26.70;1.40;;;28.74;38.49;95853.63;646019;215;31479;-77
2022/05/21 11:20:53;;;;;;;0.90;0.60;;;26.40;1.40;;;26.61;41.25;95852.33;646634;216;31520;-74
2022/05/21 11:23:52;;;;;;;1.00;0.90;;;24.50;1.40;;;28.18;38.21;95848.20;645171;212;31475;-74
2022/05/21 11:26:47;;;;;;;0.85;0.60;;;26.30;1.40;;;29.84;38.20;95843.12;645753;216;32060;-74
2022/05/21 11:29:54;;;;;;;0.50;0.50;;;27.10;1.40;;;29.37;37.30;95853.95;647180;212;31462;-74
2022/05/21 11:38:50;;;;;;;1.30;0.40;;;26.80;1.40;;;28.91;37.21;95833.00;645280;212;32330;-75
2022/05/21 11:47:33;;;;;;;0.60;0.40;;;25.10;1.40;;;29.77;36.29;95833.56;647614;216;31558;-74
2022/05/21 11:50:14;;;;;;;0.70;0.50;;;26.70;1.40;;;29.61;36.29;95831.42;647210;212;31477;-74
2022/05/21 11:52:57;;;;;;;0.50;0.35;;;26.70;1.40;;;30.27;34.49;95821.95;646202;216;31704;-74
2022/05/21 11:55:55;;;;;;;0.50;0.40;;;26.90;1.40;;;29.60;35.24;95837.16;644444;212;31507;-74
2022/05/21 11:59:05;;;;;;;1.10;0.70;;;26.20;1.40;;;29.66;34.54;95832.30;647729;212;31477;-75
2022/05/21 12:01:49;;;;;;;0.80;0.50;;;26.20;1.40;;;27.91;36.71;95832.15;619960;222;31799;-74
2022/05/21 12:04:50;;;;;;;1.40;0.40;;;24.80;1.40;;;28.31;34.48;95837.23;646080;216;31539;-75
2022/05/21 12:07:49;;;;;;;0.90;0.40;;;25.50;1.40;;;29.50;33.92;95831.70;618144;222;31799;-75
2022/05/21 12:10:32;;;;;;;0.77;0.40;;;25.50;1.40;;;29.77;33.58;95822.76;649560;212;31673;-74
2022/05/21 12:13:16;;;;;;;0.62;0.30;;;25.90;1.40;;;29.70;33.59;95822.92;616228;222;31825;-75
2022/05/21 12:15:58;;;;;;;0.50;0.30;;;25.90;1.40;;;29.77;32.60;95823.77;646954;216;42230;-74
2022/05/21 12:18:40;;;;;;;1.40;0.30;;;25.80;1.40;;;29.87;32.72;95820.73;648375;216;31805;-74
2022/05/21 12:22:01;;;;;;;0.73;0.40;;;25.80;1.40;;;29.84;33.32;95814.13;645425;212;42140;-74
2022/05/21 12:24:45;;;;;;;0.88;0.43;;;26.10;1.40;;;30.46;33.18;95817.81;651214;212;31657;-74
2022/05/21 12:27:28;;;;;;;0.40;0.30;;;26.30;1.40;;;29.73;33.03;95816.58;651631;216;42169;-74
2022/05/21 12:30:10;;;;;;;0.47;0.35;;;26.20;1.40;;;29.47;32.04;95802.09;621591;222;43857;-77
2022/05/21 12:32:58;;;;;;;0.77;0.50;;;25.60;1.40;;;29.00;33.68;95797.16;648770;216;32208;-74
2022/05/21 12:35:51;;;;;;;0.75;0.40;;;25.50;1.40;;;28.86;34.77;95805.97;653316;212;31642;-74
2022/05/21 12:38:32;;;;;;;1.20;0.30;;;25.60;1.40;;;29.06;34.04;95802.88;653529;216;31495;-74
2022/05/21 12:41:17;;;;;;;0.70;0.40;;;25.10;1.40;;;28.74;34.93;95802.81;648889;212;31522;-74
2022/05/21 12:43:59;;;;;;;0.95;0.32;;;25.50;1.40;;;28.77;34.56;95804.18;651123;216;32107;-74
2022/05/21 12:46:41;;;;;;;1.20;0.47;;;25.40;1.40;;;29.95;33.80;95798.16;646394;212;31738;-76